createdAt,value
2022-11-12T00:00:26.678Z,0.00
2022-11-12T00:01:26.621Z,0.00
2022-11-12T00:02:26.723Z,0.00
2022-11-12T00:03:26.506Z,0.00
2022-11-12T00:04:26.449Z,0.00
2022-11-12T00:05:26.393Z,0.00
2022-11-12T00:06:26.335Z,0.00
2022-11-12T00:07:26.279Z,0.00
2022-11-12T00:08:26.473Z,0.00
2022-11-12T00:09:26.166Z,0.00
2022-11-12T00:10:26.110Z,0.00
2022-11-12T00:11:26.051Z,0.00
2022-11-12T00:12:25.995Z,0.00
2022-11-12T00:13:25.941Z,0.00
2022-11-12T00:14:25.880Z,0.00
2022-11-12T00:15:25.827Z,0.00
2022-11-12T00:16:25.768Z,0.00
2022-11-12T00:17:25.714Z,0.00
2022-11-12T00:18:26.108Z,0.00
2022-11-12T00:19:25.598Z,0.00
2022-11-12T00:20:25.539Z,0.00
2022-11-12T00:21:25.485Z,0.00
2022-11-12T00:22:25.427Z,0.00
2022-11-12T00:23:25.372Z,0.00
2022-11-12T00:24:25.313Z,0.00
2022-11-12T00:25:25.258Z,0.00
2022-11-12T00:26:25.199Z,0.00
2022-11-12T00:27:25.143Z,0.00
2022-11-12T00:28:25.495Z,0.00
2022-11-12T00:29:25.032Z,0.00
2022-11-12T00:30:24.973Z,0.00
2022-11-12T00:31:24.917Z,0.00
2022-11-12T00:32:24.858Z,0.00
2022-11-12T00:33:24.803Z,0.00
2022-11-12T00:34:24.850Z,0.00
2022-11-12T00:35:24.689Z,0.00
2022-11-12T00:36:24.634Z,0.00
2022-11-12T00:37:24.576Z,0.00
2022-11-12T00:38:24.874Z,0.00
2022-11-12T00:39:24.464Z,0.00
2022-11-12T00:40:24.403Z,0.00
2022-11-12T00:41:24.351Z,0.00
2022-11-12T00:42:24.290Z,0.00
2022-11-12T00:43:24.235Z,0.00
2022-11-12T00:44:24.179Z,0.00
2022-11-12T00:45:24.127Z,0.00
2022-11-12T00:46:24.064Z,0.00
2022-11-12T00:47:24.011Z,0.00
2022-11-12T00:48:24.270Z,0.00
2022-11-12T00:49:23.896Z,0.00
2022-11-12T00:50:23.938Z,0.00
2022-11-12T00:51:24.654Z,0.00
2022-11-12T00:52:23.722Z,0.00
2022-11-12T00:53:23.665Z,0.00
2022-11-12T00:54:23.609Z,0.00
2022-11-12T00:55:23.552Z,0.00
2022-11-12T00:56:23.493Z,0.00
2022-11-12T00:57:23.442Z,0.00
2022-11-12T00:58:23.751Z,0.00
2022-11-12T00:59:23.325Z,0.00
2022-11-12T01:00:23.274Z,0.00
2022-11-12T01:01:23.251Z,0.00
2022-11-12T01:02:23.155Z,0.00
2022-11-12T01:03:23.116Z,0.00
2022-11-12T01:04:23.040Z,0.00
2022-11-12T01:05:22.984Z,0.00
2022-11-12T01:06:23.028Z,0.00
2022-11-12T01:07:22.876Z,0.00
2022-11-12T01:08:23.354Z,0.00
2022-11-12T01:09:22.759Z,0.00
2022-11-12T01:10:22.701Z,0.00
2022-11-12T01:11:22.648Z,0.00
2022-11-12T01:12:22.583Z,0.00
2022-11-12T01:13:22.529Z,0.00
2022-11-12T01:14:22.490Z,0.00
2022-11-12T01:15:22.416Z,0.00
2022-11-12T01:16:22.360Z,0.00
2022-11-12T01:17:22.303Z,0.00
2022-11-12T01:18:22.362Z,0.00
2022-11-12T01:19:22.186Z,0.00
2022-11-12T01:20:22.134Z,0.00
2022-11-12T01:21:22.073Z,0.00
2022-11-12T01:22:22.118Z,0.00
2022-11-12T01:23:21.961Z,0.00
2022-11-12T01:24:21.901Z,0.00
2022-11-12T01:25:21.853Z,0.00
2022-11-12T01:26:21.791Z,0.00
2022-11-12T01:27:21.731Z,0.00
2022-11-12T01:28:21.673Z,0.00
2022-11-12T01:29:21.618Z,0.00
2022-11-12T01:30:21.567Z,0.00
2022-11-12T01:31:21.504Z,0.00
2022-11-12T01:32:21.447Z,0.00
2022-11-12T01:33:21.391Z,0.00
2022-11-12T01:34:21.332Z,0.00
2022-11-12T01:35:21.278Z,0.00
2022-11-12T01:36:21.218Z,0.00
2022-11-12T01:37:21.164Z,0.00
2022-11-12T01:38:21.211Z,0.00
2022-11-12T01:39:21.048Z,0.00
2022-11-12T01:40:20.991Z,0.00
2022-11-12T01:41:20.934Z,0.00
2022-11-12T01:42:20.875Z,0.00
2022-11-12T01:43:20.820Z,0.00
2022-11-12T01:44:20.774Z,0.00
2022-11-12T01:45:20.711Z,0.00
2022-11-12T01:46:20.655Z,0.00
2022-11-12T01:47:20.592Z,0.00
2022-11-12T01:48:20.534Z,0.00
2022-11-12T01:49:20.479Z,0.00
2022-11-12T01:50:20.420Z,0.00
2022-11-12T01:51:20.364Z,0.00
2022-11-12T01:52:20.306Z,0.00
2022-11-12T01:53:20.251Z,0.00
2022-11-12T01:54:20.295Z,0.00
2022-11-12T01:55:20.139Z,0.00
2022-11-12T01:56:20.077Z,0.00
2022-11-12T01:57:20.023Z,0.00
2022-11-12T01:58:19.967Z,0.00
2022-11-12T01:59:19.910Z,0.00
2022-11-12T02:00:19.854Z,0.00
2022-11-12T02:01:19.893Z,0.00
2022-11-12T02:02:19.736Z,0.00
2022-11-12T02:03:19.680Z,0.00
2022-11-12T02:04:19.625Z,0.00
2022-11-12T02:05:24.173Z,0.00
2022-11-12T02:06:19.513Z,0.00
2022-11-12T02:07:19.473Z,0.00
2022-11-12T02:08:19.395Z,0.00
2022-11-12T02:09:19.338Z,0.00
2022-11-12T02:10:19.381Z,0.00
2022-11-12T02:11:19.224Z,0.00
2022-11-12T02:12:19.165Z,0.00
2022-11-12T02:13:19.117Z,0.00
2022-11-12T02:14:19.052Z,0.00
2022-11-12T02:15:19.000Z,0.00
2022-11-12T02:16:18.937Z,0.00
2022-11-12T02:17:18.883Z,0.00
2022-11-12T02:18:18.823Z,0.00
2022-11-12T02:19:18.768Z,0.00
2022-11-12T02:20:18.713Z,0.00
2022-11-12T02:21:18.653Z,0.00
2022-11-12T02:22:18.594Z,0.00
2022-11-12T02:23:18.539Z,0.00
2022-11-12T02:24:18.480Z,0.00
2022-11-12T02:25:18.424Z,0.00
2022-11-12T02:26:18.469Z,0.00
2022-11-12T02:27:18.311Z,0.00
2022-11-12T02:28:18.252Z,0.00
2022-11-12T02:29:18.196Z,0.00
2022-11-12T02:30:18.138Z,0.00
2022-11-12T02:31:18.097Z,0.00
2022-11-12T02:32:18.023Z,0.00
2022-11-12T02:33:17.968Z,0.00
2022-11-12T02:34:17.911Z,0.00
2022-11-12T02:35:17.863Z,0.00
2022-11-12T02:36:17.794Z,0.00
2022-11-12T02:37:17.739Z,0.00
2022-11-12T02:38:17.683Z,0.00
2022-11-12T02:39:17.627Z,0.00
2022-11-12T02:40:17.566Z,0.00
2022-11-12T02:41:17.512Z,0.00
2022-11-12T02:42:17.555Z,0.00
2022-11-12T02:43:17.397Z,0.00
2022-11-12T02:44:17.339Z,0.00
2022-11-12T02:45:17.284Z,0.00
2022-11-12T02:46:17.224Z,0.00
2022-11-12T02:47:17.176Z,0.00
2022-11-12T02:48:19.336Z,0.00
2022-11-12T02:49:17.056Z,0.00
2022-11-12T02:50:16.996Z,0.00
2022-11-12T02:51:16.941Z,0.00
2022-11-12T02:52:16.881Z,0.00
2022-11-12T02:53:16.827Z,0.00
2022-11-12T02:54:16.769Z,0.00
2022-11-12T02:55:16.712Z,0.00
2022-11-12T02:56:16.652Z,0.00
2022-11-12T02:57:16.598Z,0.00
2022-11-12T02:58:16.647Z,0.00
2022-11-12T02:59:16.492Z,0.00
2022-11-12T03:00:16.471Z,0.00
2022-11-12T03:01:16.396Z,0.00
2022-11-12T03:02:16.312Z,0.00
2022-11-12T03:03:16.256Z,0.00
2022-11-12T03:04:16.196Z,0.00
2022-11-12T03:05:16.143Z,0.00
2022-11-12T03:06:16.083Z,0.00
2022-11-12T03:07:16.071Z,0.00
2022-11-12T03:08:15.968Z,0.00
2022-11-12T03:09:15.917Z,0.00
2022-11-12T03:10:15.855Z,0.00
2022-11-12T03:11:15.799Z,0.00
2022-11-12T03:12:15.741Z,0.00
2022-11-12T03:13:15.683Z,0.00
2022-11-12T03:14:15.726Z,0.00
2022-11-12T03:15:17.197Z,0.00
2022-11-12T03:16:15.510Z,0.00
2022-11-12T03:17:15.461Z,0.00
2022-11-12T03:18:15.396Z,0.00
2022-11-12T03:19:15.344Z,0.00
2022-11-12T03:20:15.282Z,0.00
2022-11-12T03:21:15.228Z,0.00
2022-11-12T03:22:15.171Z,0.00
2022-11-12T03:23:15.113Z,0.00
2022-11-12T03:24:15.059Z,0.00
2022-11-12T03:25:14.999Z,0.00
2022-11-12T03:26:14.939Z,0.00
2022-11-12T03:27:14.885Z,0.00
2022-11-12T03:28:14.827Z,0.00
2022-11-12T03:29:14.771Z,0.00
2022-11-12T03:30:14.812Z,0.00
2022-11-12T03:31:14.657Z,0.00
2022-11-12T03:32:16.202Z,0.00
2022-11-12T03:33:14.543Z,0.00
2022-11-12T03:34:14.482Z,0.00
2022-11-12T03:35:14.429Z,0.00
2022-11-12T03:36:14.370Z,0.00
2022-11-12T03:37:14.315Z,0.00
2022-11-12T03:38:14.253Z,0.00
2022-11-12T03:39:14.202Z,0.00
2022-11-12T03:40:14.139Z,0.00
2022-11-12T03:41:14.084Z,0.00
2022-11-12T03:42:14.025Z,0.00
2022-11-12T03:43:13.970Z,0.00
2022-11-12T03:44:13.915Z,0.00
2022-11-12T03:45:13.856Z,0.00
2022-11-12T03:46:13.901Z,0.00
2022-11-12T03:47:13.739Z,0.00
2022-11-12T03:48:13.683Z,0.00
2022-11-12T03:49:13.627Z,0.00
2022-11-12T03:50:13.569Z,0.00
2022-11-12T03:51:13.552Z,0.00
2022-11-12T03:52:13.454Z,0.00
2022-11-12T03:53:13.399Z,0.00
2022-11-12T03:54:13.346Z,0.00
2022-11-12T03:55:13.281Z,0.00
2022-11-12T03:56:13.230Z,0.00
2022-11-12T03:57:13.169Z,0.00
2022-11-12T03:58:13.130Z,0.00
2022-11-12T03:59:13.053Z,0.00
2022-11-12T04:00:12.996Z,0.00
2022-11-12T04:01:12.996Z,0.00
2022-11-12T04:02:12.981Z,0.00
2022-11-12T04:03:12.823Z,0.00
2022-11-12T04:04:12.772Z,0.00
2022-11-12T04:05:12.711Z,0.00
2022-11-12T04:06:12.734Z,0.00
2022-11-12T04:07:12.620Z,0.00
2022-11-12T04:08:12.539Z,0.00
2022-11-12T04:09:12.481Z,0.00
2022-11-12T04:10:12.426Z,0.00
2022-11-12T04:11:12.465Z,0.00
2022-11-12T04:12:12.310Z,0.00
2022-11-12T04:13:12.252Z,0.00
2022-11-12T04:14:12.201Z,0.00
2022-11-12T04:15:12.139Z,0.00
2022-11-12T04:16:12.085Z,0.00
2022-11-12T04:17:12.024Z,0.00
2022-11-12T04:18:12.064Z,0.00
2022-11-12T04:19:11.910Z,0.00
2022-11-12T04:20:11.851Z,0.00
2022-11-12T04:21:11.794Z,0.00
2022-11-12T04:22:11.738Z,0.00
2022-11-12T04:23:11.732Z,0.00
2022-11-12T04:24:11.625Z,0.00
2022-11-12T04:25:11.564Z,0.00
2022-11-12T04:26:11.512Z,0.00
2022-11-12T04:27:11.449Z,0.00
2022-11-12T04:28:11.394Z,0.00
2022-11-12T04:29:11.336Z,0.00
2022-11-12T04:30:11.282Z,0.00
2022-11-12T04:31:11.221Z,0.00
2022-11-12T04:32:11.167Z,0.00
2022-11-12T04:33:11.107Z,0.00
2022-11-12T04:34:11.155Z,0.00
2022-11-12T04:35:11.062Z,0.00
2022-11-12T04:36:10.935Z,0.00
2022-11-12T04:37:10.878Z,0.00
2022-11-12T04:38:10.824Z,0.00
2022-11-12T04:39:10.762Z,0.00
2022-11-12T04:40:10.707Z,0.00
2022-11-12T04:41:10.649Z,0.00
2022-11-12T04:42:10.594Z,0.00
2022-11-12T04:43:10.534Z,0.00
2022-11-12T04:44:10.481Z,0.00
2022-11-12T04:45:10.423Z,0.00
2022-11-12T04:46:10.368Z,0.00
2022-11-12T04:47:10.304Z,0.00
2022-11-12T04:48:10.249Z,0.00
2022-11-12T04:49:10.195Z,0.00
2022-11-12T04:50:10.239Z,0.00
2022-11-12T04:51:10.083Z,0.00
2022-11-12T04:52:10.020Z,0.00
2022-11-12T04:53:09.962Z,0.00
2022-11-12T04:54:09.905Z,0.00
2022-11-12T04:55:09.845Z,0.00
2022-11-12T04:56:09.792Z,0.00
2022-11-12T04:57:09.732Z,0.00
2022-11-12T04:58:09.677Z,0.00
2022-11-12T04:59:09.620Z,0.00
2022-11-12T05:00:09.561Z,0.00
2022-11-12T05:01:09.553Z,0.00
2022-11-12T05:02:09.447Z,0.00
2022-11-12T05:03:09.386Z,0.00
2022-11-12T05:04:09.334Z,0.00
2022-11-12T05:05:09.275Z,0.00
2022-11-12T05:06:09.316Z,0.00
2022-11-12T05:07:09.179Z,0.00
2022-11-12T05:08:09.104Z,0.00
2022-11-12T05:09:09.045Z,0.00
2022-11-12T05:10:08.990Z,0.00
2022-11-12T05:11:12.845Z,0.00
2022-11-12T05:12:08.873Z,0.00
2022-11-12T05:13:08.813Z,0.00
2022-11-12T05:14:08.759Z,0.00
2022-11-12T05:15:08.700Z,0.00
2022-11-12T05:16:08.645Z,0.00
2022-11-12T05:17:08.591Z,0.00
2022-11-12T05:18:08.535Z,0.00
2022-11-12T05:19:08.471Z,0.00
2022-11-12T05:20:08.413Z,0.00
2022-11-12T05:21:08.356Z,0.00
2022-11-12T05:22:17.422Z,0.00
2022-11-12T05:23:08.304Z,0.00
2022-11-12T05:24:08.422Z,0.00
2022-11-12T05:25:08.126Z,0.00
2022-11-12T05:26:08.070Z,0.00
2022-11-12T05:27:08.013Z,0.00
2022-11-12T05:28:07.973Z,0.00
2022-11-12T05:29:08.980Z,0.00
2022-11-12T05:30:07.858Z,0.00
2022-11-12T05:31:07.782Z,0.00
2022-11-12T05:32:07.730Z,0.00
2022-11-12T05:33:07.667Z,0.00
2022-11-12T05:34:07.611Z,0.00
2022-11-12T05:35:07.554Z,0.00
2022-11-12T05:36:07.498Z,0.00
2022-11-12T05:37:07.441Z,0.00
2022-11-12T05:38:07.498Z,0.00
2022-11-12T05:39:07.323Z,0.00
2022-11-12T05:40:07.271Z,0.00
2022-11-12T05:41:07.208Z,0.00
2022-11-12T05:42:14.652Z,0.00
2022-11-12T05:43:07.095Z,0.00
2022-11-12T05:44:07.038Z,0.00
2022-11-12T05:45:06.978Z,0.00
2022-11-12T05:46:06.924Z,0.00
2022-11-12T05:47:06.870Z,0.00
2022-11-12T05:48:06.811Z,0.00
2022-11-12T05:49:06.750Z,0.00
2022-11-12T05:50:06.694Z,0.00
2022-11-12T05:51:12.890Z,0.00
2022-11-12T05:52:06.581Z,0.00
2022-11-12T05:53:06.520Z,0.00
2022-11-12T05:54:06.567Z,0.00
2022-11-12T05:55:06.407Z,0.00
2022-11-12T05:56:06.354Z,0.00
2022-11-12T05:57:06.292Z,0.00
2022-11-12T05:58:06.241Z,0.00
2022-11-12T05:59:06.174Z,0.00
2022-11-12T06:00:06.122Z,0.00
2022-11-12T06:01:06.079Z,0.00
2022-11-12T06:02:06.088Z,0.00
2022-11-12T06:03:05.946Z,0.00
2022-11-12T06:04:05.891Z,0.00
2022-11-12T06:05:05.834Z,0.00
2022-11-12T06:06:05.894Z,0.00
2022-11-12T06:07:05.896Z,0.00
2022-11-12T06:08:05.661Z,0.00
2022-11-12T06:09:05.602Z,0.00
2022-11-12T06:10:05.649Z,0.00
2022-11-12T06:11:05.487Z,0.00
2022-11-12T06:12:05.430Z,0.00
2022-11-12T06:13:05.372Z,0.00
2022-11-12T06:14:05.323Z,0.00
2022-11-12T06:15:05.259Z,0.00
2022-11-12T06:16:05.201Z,0.00
2022-11-12T06:17:05.141Z,0.00
2022-11-12T06:18:05.086Z,0.00
2022-11-12T06:19:05.027Z,0.00
2022-11-12T06:20:04.971Z,0.00
2022-11-12T06:21:04.918Z,0.00
2022-11-12T06:22:04.861Z,0.00
2022-11-12T06:23:07.732Z,0.00
2022-11-12T06:24:04.741Z,0.00
2022-11-12T06:25:04.683Z,0.00
2022-11-12T06:26:04.726Z,0.00
2022-11-12T06:27:04.566Z,0.00
2022-11-12T06:28:04.516Z,0.00
2022-11-12T06:29:04.452Z,0.00
2022-11-12T06:30:04.401Z,0.00
2022-11-12T06:31:04.338Z,0.00
2022-11-12T06:32:04.283Z,0.00
2022-11-12T06:33:04.231Z,0.00
2022-11-12T06:34:04.168Z,0.00
2022-11-12T06:35:04.108Z,0.00
2022-11-12T06:36:04.052Z,0.00
2022-11-12T06:37:03.993Z,0.00
2022-11-12T06:38:03.939Z,0.00
2022-11-12T06:39:03.883Z,0.00
2022-11-12T06:40:03.825Z,0.00
2022-11-12T06:41:03.766Z,0.00
2022-11-12T06:42:03.811Z,4.00
2022-11-12T06:43:03.650Z,4.00
2022-11-12T06:44:03.593Z,4.00
2022-11-12T06:45:03.545Z,4.00
2022-11-12T06:46:03.480Z,4.00
2022-11-12T06:47:03.418Z,0.00
2022-11-12T06:48:03.366Z,0.00
2022-11-12T06:49:03.308Z,4.00
2022-11-12T06:50:03.248Z,4.00
2022-11-12T06:51:03.189Z,4.00
2022-11-12T06:52:03.138Z,4.00
2022-11-12T06:53:03.075Z,4.00
2022-11-12T06:54:03.022Z,4.00
2022-11-12T06:55:02.959Z,8.00
2022-11-12T06:56:02.905Z,4.00
2022-11-12T06:57:02.851Z,4.00
2022-11-12T06:58:02.887Z,4.00
2022-11-12T06:59:02.732Z,8.00
2022-11-12T07:00:02.677Z,8.00
2022-11-12T07:01:05.761Z,4.00
2022-11-12T07:02:02.585Z,4.00
2022-11-12T07:03:02.501Z,8.00
2022-11-12T07:04:02.444Z,8.00
2022-11-12T07:05:02.385Z,8.00
2022-11-12T07:06:02.330Z,8.00
2022-11-12T07:07:04.742Z,12.00
2022-11-12T07:08:02.215Z,8.00
2022-11-12T07:09:02.156Z,8.00
2022-11-12T07:10:02.103Z,8.00
2022-11-12T07:11:02.043Z,12.00
2022-11-12T07:12:01.986Z,12.00
2022-11-12T07:13:01.925Z,12.00
2022-11-12T07:14:01.978Z,12.00
2022-11-12T07:15:01.815Z,12.00
2022-11-12T07:16:01.758Z,12.00
2022-11-12T07:17:01.695Z,16.00
2022-11-12T07:18:01.642Z,12.00
2022-11-12T07:19:01.580Z,16.00
2022-11-12T07:20:03.843Z,16.00
2022-11-12T07:21:01.470Z,16.00
2022-11-12T07:22:01.412Z,16.00
2022-11-12T07:23:01.354Z,16.00
2022-11-12T07:24:01.295Z,16.00
2022-11-12T07:25:01.236Z,16.00
2022-11-12T07:26:01.180Z,16.00
2022-11-12T07:27:01.123Z,16.00
2022-11-12T07:28:01.065Z,20.00
2022-11-12T07:29:01.007Z,20.00
2022-11-12T07:30:01.048Z,20.00
2022-11-12T07:31:00.891Z,16.00
2022-11-12T07:32:00.834Z,16.00
2022-11-12T07:33:00.776Z,20.00
2022-11-12T07:34:00.720Z,20.00
2022-11-12T07:35:00.661Z,20.00
2022-11-12T07:36:00.605Z,20.00
2022-11-12T07:37:00.545Z,20.00
2022-11-12T07:38:00.490Z,20.00
2022-11-12T07:39:00.430Z,20.00
2022-11-12T07:40:00.373Z,20.00
2022-11-12T07:41:00.316Z,24.00
2022-11-12T07:42:00.260Z,20.00
2022-11-12T07:43:00.201Z,24.00
2022-11-12T07:44:00.148Z,24.00
2022-11-12T07:45:01.775Z,24.00
2022-11-12T07:46:00.138Z,24.00
2022-11-12T07:46:59.973Z,24.00
2022-11-12T07:47:59.916Z,24.00
2022-11-12T07:48:59.857Z,24.00
2022-11-12T07:49:59.799Z,24.00
2022-11-12T07:50:59.746Z,24.00
2022-11-12T07:51:59.693Z,28.00
2022-11-12T07:52:59.631Z,24.00
2022-11-12T07:53:59.938Z,28.00
2022-11-12T07:54:59.511Z,28.00
2022-11-12T07:55:59.465Z,24.00
2022-11-12T07:56:59.401Z,24.00
2022-11-12T07:57:59.340Z,24.00
2022-11-12T07:58:59.281Z,24.00
2022-11-12T07:59:59.225Z,20.00
2022-11-12T08:00:59.165Z,20.00
2022-11-12T08:01:59.266Z,20.00
2022-11-12T08:02:59.053Z,20.00
2022-11-12T08:03:58.996Z,24.00
2022-11-12T08:04:58.937Z,24.00
2022-11-12T08:05:58.879Z,24.00
2022-11-12T08:06:58.936Z,28.00
2022-11-12T08:07:58.873Z,24.00
2022-11-12T08:08:58.708Z,24.00
2022-11-12T08:09:58.649Z,24.00
2022-11-12T08:10:58.594Z,24.00
2022-11-12T08:11:58.532Z,28.00
2022-11-12T08:12:58.477Z,24.00
2022-11-12T08:13:58.425Z,24.00
2022-11-12T08:14:58.362Z,24.00
2022-11-12T08:15:58.305Z,20.00
2022-11-12T08:16:58.248Z,24.00
2022-11-12T08:17:58.292Z,24.00
2022-11-12T08:18:58.131Z,24.00
2022-11-12T08:19:58.078Z,24.00
2022-11-12T08:20:58.023Z,24.00
2022-11-12T08:21:57.958Z,28.00
2022-11-12T08:22:57.901Z,24.00
2022-11-12T08:23:57.843Z,24.00
2022-11-12T08:24:57.789Z,24.00
2022-11-12T08:25:57.729Z,24.00
2022-11-12T08:26:57.674Z,24.00
2022-11-12T08:27:57.614Z,24.00
2022-11-12T08:28:57.556Z,28.00
2022-11-12T08:29:57.505Z,28.00
2022-11-12T08:30:57.447Z,28.00
2022-11-12T08:31:57.386Z,28.00
2022-11-12T08:32:57.328Z,28.00
2022-11-12T08:33:57.365Z,28.00
2022-11-12T08:34:57.211Z,24.00
2022-11-12T08:35:57.152Z,32.00
2022-11-12T08:36:57.099Z,32.00
2022-11-12T08:37:57.037Z,32.00
2022-11-12T08:38:56.981Z,32.00
2022-11-12T08:39:56.922Z,36.00
2022-11-12T08:40:56.867Z,40.00
2022-11-12T08:41:56.808Z,40.00
2022-11-12T08:42:56.753Z,44.00
2022-11-12T08:43:56.693Z,44.00
2022-11-12T08:44:56.636Z,44.00
2022-11-12T08:45:56.577Z,44.00
2022-11-12T08:46:56.521Z,48.00
2022-11-12T08:47:56.463Z,48.00
2022-11-12T08:48:56.407Z,48.00
2022-11-12T08:49:56.452Z,48.00
2022-11-12T08:50:56.291Z,52.00
2022-11-12T08:51:56.232Z,48.00
2022-11-12T08:52:56.178Z,48.00
2022-11-12T08:53:56.118Z,52.00
2022-11-12T08:54:56.060Z,52.00
2022-11-12T08:55:56.006Z,52.00
2022-11-12T08:56:55.946Z,52.00
2022-11-12T08:57:55.889Z,56.00
2022-11-12T08:58:55.835Z,60.00
2022-11-12T08:59:55.772Z,60.00
2022-11-12T09:00:55.717Z,60.00
2022-11-12T09:01:55.712Z,60.00
2022-11-12T09:02:55.614Z,64.00
2022-11-12T09:03:55.542Z,64.00
2022-11-12T09:04:55.485Z,64.00
2022-11-12T09:05:55.524Z,64.00
2022-11-12T09:06:55.420Z,64.00
2022-11-12T09:07:55.393Z,68.00
2022-11-12T09:08:55.261Z,64.00
2022-11-12T09:09:55.202Z,68.00
2022-11-12T09:10:55.143Z,64.00
2022-11-12T09:11:55.083Z,68.00
2022-11-12T09:12:55.025Z,64.00
2022-11-12T09:13:55.003Z,64.00
2022-11-12T09:14:59.603Z,68.00
2022-11-12T09:15:54.857Z,64.00
2022-11-12T09:16:54.794Z,60.00
2022-11-12T09:17:54.741Z,64.00
2022-11-12T09:18:54.682Z,64.00
2022-11-12T09:19:54.622Z,68.00
2022-11-12T09:20:54.566Z,68.00
2022-11-12T09:21:54.614Z,68.00
2022-11-12T09:22:54.455Z,72.00
2022-11-12T09:23:54.391Z,76.00
2022-11-12T09:24:54.336Z,80.00
2022-11-12T09:25:54.277Z,84.00
2022-11-12T09:26:54.220Z,80.00
2022-11-12T09:27:54.197Z,80.00
2022-11-12T09:28:54.106Z,76.00
2022-11-12T09:29:54.048Z,80.00
2022-11-12T09:30:53.990Z,80.00
2022-11-12T09:31:53.932Z,80.00
2022-11-12T09:32:53.876Z,80.00
2022-11-12T09:33:53.819Z,76.00
2022-11-12T09:34:53.762Z,80.00
2022-11-12T09:35:53.703Z,84.00
2022-11-12T09:36:53.645Z,88.00
2022-11-12T09:37:53.686Z,92.00
2022-11-12T09:38:53.532Z,96.00
2022-11-12T09:39:53.471Z,104.00
2022-11-12T09:40:53.422Z,108.00
2022-11-12T09:41:56.640Z,108.00
2022-11-12T09:42:53.301Z,120.00
2022-11-12T09:43:53.242Z,132.00
2022-11-12T09:44:53.186Z,148.00
2022-11-12T09:46:06.942Z,164.00
2022-11-12T09:46:53.071Z,208.00
2022-11-12T09:47:53.013Z,264.00
2022-11-12T09:48:52.959Z,316.00
2022-11-12T09:49:52.902Z,480.00
2022-11-12T09:50:52.842Z,844.00
2022-11-12T09:51:52.781Z,1068.00
2022-11-12T09:52:52.726Z,1008.00
2022-11-12T09:53:52.771Z,1032.00
2022-11-12T09:54:52.613Z,1248.00
2022-11-12T09:55:52.563Z,1240.00
2022-11-12T09:56:52.497Z,1092.00
2022-11-12T09:57:52.449Z,772.00
2022-11-12T09:58:52.382Z,836.00
2022-11-12T09:59:52.322Z,844.00
2022-11-12T10:00:52.266Z,704.00
2022-11-12T10:01:52.285Z,712.00
2022-11-12T10:02:52.153Z,608.00
2022-11-12T10:03:52.093Z,436.00
2022-11-12T10:04:52.038Z,328.00
2022-11-12T10:05:51.978Z,284.00
2022-11-12T10:06:52.010Z,248.00
2022-11-12T10:07:51.864Z,244.00
2022-11-12T10:08:51.813Z,292.00
2022-11-12T10:09:51.849Z,384.00
2022-11-12T10:10:51.693Z,376.00
2022-11-12T10:11:51.635Z,268.00
2022-11-12T10:12:51.578Z,216.00
2022-11-12T10:13:51.519Z,164.00
2022-11-12T10:14:51.466Z,156.00
2022-11-12T10:15:51.405Z,160.00
2022-11-12T10:16:51.349Z,164.00
2022-11-12T10:17:51.294Z,156.00
2022-11-12T10:18:51.235Z,144.00
2022-11-12T10:19:51.179Z,148.00
2022-11-12T10:20:51.121Z,164.00
2022-11-12T10:21:51.059Z,196.00
2022-11-12T10:22:51.004Z,256.00
2022-11-12T10:23:50.947Z,288.00
2022-11-12T10:24:50.892Z,300.00
2022-11-12T10:25:50.935Z,240.00
2022-11-12T10:26:50.775Z,228.00
2022-11-12T10:27:50.718Z,248.00
2022-11-12T10:28:50.662Z,244.00
2022-11-12T10:29:50.610Z,260.00
2022-11-12T10:30:50.546Z,332.00
2022-11-12T10:31:50.487Z,460.00
2022-11-12T10:32:50.431Z,520.00
2022-11-12T10:33:50.373Z,520.00
2022-11-12T10:34:50.315Z,484.00
2022-11-12T10:35:50.267Z,476.00
2022-11-12T10:36:50.207Z,316.00
2022-11-12T10:37:50.143Z,252.00
2022-11-12T10:38:50.087Z,272.00
2022-11-12T10:39:50.040Z,316.00
2022-11-12T10:40:49.973Z,452.00
2022-11-12T10:41:50.012Z,756.00
2022-11-12T10:42:49.857Z,832.00
2022-11-12T10:43:49.801Z,852.00
2022-11-12T10:44:49.744Z,688.00
2022-11-12T10:45:49.686Z,604.00
2022-11-12T10:46:49.629Z,616.00
2022-11-12T10:47:49.569Z,508.00
2022-11-12T10:48:49.516Z,636.00
2022-11-12T10:49:49.456Z,1004.00
2022-11-12T10:50:49.398Z,996.00
2022-11-12T10:51:49.350Z,976.00
2022-11-12T10:52:49.286Z,624.00
2022-11-12T10:53:49.226Z,540.00
2022-11-12T10:54:54.857Z,652.00
2022-11-12T10:55:49.113Z,1160.00
2022-11-12T10:56:55.082Z,1332.00
2022-11-12T10:57:49.097Z,1048.00
2022-11-12T10:58:48.941Z,908.00
2022-11-12T10:59:48.883Z,1104.00
2022-11-12T11:00:48.828Z,1480.00
2022-11-12T11:01:48.802Z,1760.00
2022-11-12T11:02:48.715Z,1916.00
2022-11-12T11:03:48.654Z,2300.00
2022-11-12T11:04:48.604Z,3180.00
2022-11-12T11:05:48.544Z,4996.00
2022-11-12T11:06:48.582Z,5404.00
2022-11-12T11:07:48.425Z,5300.00
2022-11-12T11:08:48.372Z,5004.00
2022-11-12T11:09:48.312Z,4232.00
2022-11-12T11:10:48.258Z,2228.00
2022-11-12T11:11:48.195Z,1920.00
2022-11-12T11:12:48.140Z,1240.00
2022-11-12T11:13:51.444Z,696.00
2022-11-12T11:14:48.025Z,500.00
2022-11-12T11:15:47.967Z,344.00
2022-11-12T11:16:47.912Z,260.00
2022-11-12T11:17:47.853Z,248.00
2022-11-12T11:18:47.800Z,208.00
2022-11-12T11:19:47.739Z,172.00
2022-11-12T11:20:47.684Z,188.00
2022-11-12T11:21:47.624Z,172.00
2022-11-12T11:22:47.569Z,164.00
2022-11-12T11:23:47.510Z,164.00
2022-11-12T11:24:47.454Z,156.00
2022-11-12T11:25:47.396Z,148.00
2022-11-12T11:26:47.338Z,140.00
2022-11-12T11:27:47.287Z,136.00
2022-11-12T11:28:47.230Z,132.00
2022-11-12T11:29:47.270Z,128.00
2022-11-12T11:30:47.114Z,116.00
2022-11-12T11:31:47.055Z,120.00
2022-11-12T11:32:46.998Z,116.00
2022-11-12T11:33:46.940Z,120.00
2022-11-12T11:34:46.881Z,116.00
2022-11-12T11:35:46.823Z,108.00
2022-11-12T11:36:46.767Z,104.00
2022-11-12T11:37:46.710Z,100.00
2022-11-12T11:38:46.653Z,96.00
2022-11-12T11:39:46.593Z,92.00
2022-11-12T11:40:46.541Z,88.00
2022-11-12T11:41:46.480Z,88.00
2022-11-12T11:42:46.425Z,92.00
2022-11-12T11:43:46.416Z,96.00
2022-11-12T11:44:46.309Z,96.00
2022-11-12T11:45:46.351Z,96.00
2022-11-12T11:46:46.196Z,96.00
2022-11-12T11:48:00.673Z,96.00
2022-11-12T11:48:46.082Z,96.00
2022-11-12T11:49:46.022Z,92.00
2022-11-12T11:50:45.968Z,92.00
2022-11-12T11:51:45.908Z,92.00
2022-11-12T11:52:45.852Z,92.00
2022-11-12T11:53:45.796Z,92.00
2022-11-12T11:54:45.738Z,92.00
2022-11-12T11:55:45.678Z,88.00
2022-11-12T11:56:45.624Z,84.00
2022-11-12T11:57:45.567Z,84.00
2022-11-12T11:58:45.508Z,88.00
2022-11-12T11:59:45.451Z,80.00
2022-11-12T12:00:45.394Z,84.00
2022-11-12T12:01:45.437Z,80.00
2022-11-12T12:02:45.281Z,76.00
2022-11-12T12:03:45.252Z,76.00
2022-11-12T12:04:45.168Z,76.00
2022-11-12T12:05:45.107Z,72.00
2022-11-12T12:06:45.091Z,72.00
2022-11-12T12:07:44.994Z,76.00
2022-11-12T12:08:44.938Z,76.00
2022-11-12T12:09:44.880Z,76.00
2022-11-12T12:11:09.536Z,76.00
2022-11-12T12:11:44.766Z,76.00
2022-11-12T12:12:44.710Z,76.00
2022-11-12T12:13:44.652Z,76.00
2022-11-12T12:14:44.596Z,76.00
2022-11-12T12:15:44.538Z,72.00
2022-11-12T12:16:44.482Z,72.00
2022-11-12T12:17:44.525Z,72.00
2022-11-12T12:18:44.389Z,68.00
2022-11-12T12:19:44.312Z,68.00
2022-11-12T12:20:44.253Z,72.00
2022-11-12T12:21:44.194Z,68.00
2022-11-12T12:22:44.137Z,72.00
2022-11-12T12:23:44.082Z,68.00
2022-11-12T12:24:44.022Z,68.00
2022-11-12T12:25:43.971Z,68.00
2022-11-12T12:26:43.907Z,64.00
2022-11-12T12:27:43.852Z,64.00
2022-11-12T12:28:43.793Z,64.00
2022-11-12T12:29:43.740Z,60.00
2022-11-12T12:30:43.679Z,60.00
2022-11-12T12:31:43.626Z,60.00
2022-11-12T12:32:43.567Z,60.00
2022-11-12T12:33:43.612Z,60.00
2022-11-12T12:34:43.451Z,60.00
2022-11-12T12:35:43.400Z,60.00
2022-11-12T12:36:43.339Z,56.00
2022-11-12T12:37:43.282Z,60.00
2022-11-12T12:38:43.224Z,64.00
2022-11-12T12:39:47.754Z,60.00
2022-11-12T12:40:43.111Z,60.00
2022-11-12T12:41:43.057Z,60.00
2022-11-12T12:42:42.994Z,60.00
2022-11-12T12:43:43.779Z,60.00
2022-11-12T12:44:42.880Z,60.00
2022-11-12T12:45:42.827Z,64.00
2022-11-12T12:46:42.768Z,60.00
2022-11-12T12:47:42.713Z,64.00
2022-11-12T12:48:42.653Z,60.00
2022-11-12T12:49:42.697Z,60.00
2022-11-12T12:50:42.539Z,60.00
2022-11-12T12:51:42.483Z,60.00
2022-11-12T12:52:42.426Z,56.00
2022-11-12T12:53:42.368Z,56.00
2022-11-12T12:54:42.310Z,56.00
2022-11-12T12:55:42.256Z,52.00
2022-11-12T12:56:42.197Z,52.00
2022-11-12T12:57:42.142Z,52.00
2022-11-12T12:58:42.083Z,52.00
2022-11-12T12:59:42.026Z,52.00
2022-11-12T13:00:41.992Z,52.00